Nearby METAR Reports

 

KJOT - Joliet, Illinois, USA
Distance from station: SSW 3mi, 6km
Updated: 16/07/2019 15:15
Overcast
Overcast
 Wind from ENE
Wind: ENE 3 mph , 6 km/h
Temperature: 81°F , 27°C
Heat Index: 89°F , 32°C
Dew Point: 79°F , 26°C
Humidity: 94%
Barometer: 29.88 inHg , 1011.9 hPa
Clouds: Overcast
Visibility: 10 miles , 16 km
Cloud details: Partly cloudy 4300 ft
Mostly cloudy 4900 ft
Overcast 6000 ft
2019/07/16 20:15 KJOT 162015Z AUTO 07003KT 10SM SCT043 BKN049 OVC060 27/26 A2988 RMK AO2 LTG DSNT SE T02710256
KLOT - Romeoville/Chi, Illinois, USA
Distance from station: NE 4mi, 6km
Updated: 16/07/2019 15:10
Overcast
Overcast
 Wind from calm
Wind: Calm
Temperature: 79°F , 26°C
Dew Point: 75°F , 24°C
Humidity: 89%
Barometer: 29.89 inHg , 1012.2 hPa
Clouds: Overcast
Visibility: 10 miles , 16 km
Cloud details: Overcast 5000 ft
2019/07/16 20:10 KLOT 162010Z AUTO 00000KT 10SM OVC050 26/24 A2989 RMK AO2 T02570236
 
KC09 - Morris-Washburn, Illinois, USA
Distance from station: SW 16mi, 26km
Updated: 16/07/2019 15:15
Partly cloudy
Partly cloudy
 Wind from calm
Wind: Calm
Temperature: 81°F , 27°C
Heat Index: 87°F , 31°C
Dew Point: 75°F , 24°C
Humidity: 84%
Barometer: 29.87 inHg , 1011.5 hPa
Clouds: Partly cloudy
Visibility: 10 miles , 16 km
Cloud details: Partly cloudy 1600 ft
Partly cloudy 4700 ft
2019/07/16 20:15 KC09 162015Z AUTO 00000KT 10SM SCT016 SCT047 27/24 A2987 RMK AO2 LTG DSNT SE T02720236
KARR - Chicago/Aurora, Illinois, USA
Distance from station: NW 22mi, 35km
Updated: 16/07/2019 14:52
Clear
Clear
 Wind from varies
Wind: varies 3 mph , 6 km/h
Temperature: 81°F , 27°C
Heat Index: 86°F , 30°C
Dew Point: 73°F , 23°C
Humidity: 79%
Barometer: 29.89 inHg , 1012.2 hPa
Clouds: Clear
Visibility: 10 miles , 16 km
2019/07/16 19:52 KARR 161952Z VRB03KT 10SM CLR 27/23 A2989 RMK AO2 RAB08E25 SLP115 P0000 T02720228
 
KDPA - Chicago/Dupage, Illinois, USA
Distance from station: NNW 25mi, 40km
Updated: 16/07/2019 14:52
Mostly cloudy
Mostly cloudy
 Wind from E
Wind: E 5 mph , 7 km/h
Temperature: 81°F , 27°C
Heat Index: 85°F , 29°C
Dew Point: 72°F , 22°C
Humidity: 74%
Barometer: 29.89 inHg , 1012.2 hPa
Clouds: Mostly cloudy
Visibility: 10 miles , 16 km
Cloud details: Partly cloudy 4900 ft
Mostly cloudy 10000 ft
2019/07/16 19:52 KDPA 161952Z 09004KT 10SM SCT049 BKN100 27/22 A2989 RMK AO2 RAE40 SLP116 P0003 T02670222
KMDW - Chicago, Illinois, USA
Distance from station: NE 26mi, 42km
Updated: 16/07/2019 14:53
Mostly cloudy
Mostly cloudy
 Wind from SSW
Wind: SSW 7 mph , 11 km/h
Temperature: 81°F , 27°C
Heat Index: 86°F , 30°C
Dew Point: 73°F , 23°C
Humidity: 79%
Barometer: 29.89 inHg , 1012.2 hPa
Clouds: Mostly cloudy
Visibility: 10 miles , 16 km
Cloud details: Few Clouds 4100 ft
Partly cloudy 6000 ft
Mostly cloudy 25000 ft
2019/07/16 19:53 KMDW 161953Z 20006KT 10SM FEW041 SCT060 BKN250 27/23 A2989 RMK AO2 LTG DSNT SE RAE33 SLP111 P0004 T02670233
 
KORD - Chicago O'hare, Illinois, USA
Distance from station: NNE 31mi, 50km
Updated: 16/07/2019 14:51
Mostly cloudy
Mostly cloudy
 Wind from S
Wind: S 5 mph , 7 km/h
Temperature: 81°F , 27°C
Heat Index: 85°F , 29°C
Dew Point: 72°F , 22°C
Humidity: 74%
Barometer: 29.89 inHg , 1012.2 hPa
Clouds: Mostly cloudy
Visibility: 10 miles , 16 km
Cloud details: Partly cloudy 4500 ft
Partly cloudy 6000 ft
Mostly cloudy 8000 ft
Mostly cloudy 25000 ft
2019/07/16 19:51 KORD 161951Z 18004KT 10SM SCT045 SCT060 BKN080 BKN250 27/22 A2989 RMK AO2 RAB1852E01B16E51 SLP116 P0000 T02670217
KIGQ - Chicago/Lansing, Illinois, USA
Distance from station: E 32mi, 52km
Updated: 16/07/2019 15:15
Heavy rain, Overcast
Heavy rain, Overcast
 Wind from calm
Wind: Calm
Temperature: 75°F , 24°C
Dew Point: 73°F , 23°C
Humidity: 94%
Barometer: 29.90 inHg , 1012.5 hPa
Summary: Heavy rain
Clouds: Overcast
Visibility: 1 1/2 miles , 2.4 km
Cloud details: Partly cloudy 2000 ft
Overcast 2700 ft
2019/07/16 20:15 KIGQ 162015Z AUTO 00000KT 1 1/2SM +RA SCT020 OVC027 24/23 A2990 RMK AO2 P0021 T02370233
 
KDKB - De Kalb, Illinois, USA
Distance from station: NW 38mi, 61km
Updated: 16/07/2019 15:15
Mostly cloudy
Mostly cloudy
 Wind from calm
Wind: Calm
Temperature: 82°F , 28°C
Heat Index: 86°F , 30°C
Dew Point: 72°F , 22°C
Humidity: 70%
Barometer: 29.89 inHg , 1012.2 hPa
Clouds: Mostly cloudy
Visibility: 10 miles , 16 km
Cloud details: Partly cloudy 4300 ft
Partly cloudy 5000 ft
Mostly cloudy 6500 ft
2019/07/16 20:15 KDKB 162015Z AUTO 00000KT 10SM SCT043 SCT050 BKN065 28/22 A2989 RMK AO2 T02790221
KIKK - Kankakee, Illinois, USA
Distance from station: SSE 38mi, 61km
Updated: 16/07/2019 15:15
Light rain, Overcast
Light rain, Overcast
 Wind from NE
Wind: NE 6 mph , 9 km/h
Temperature: 77°F , 25°C
Dew Point: 73°F , 23°C
Humidity: 89%
Barometer: 29.89 inHg , 1012.2 hPa
Summary: Light rain
Clouds: Overcast
Visibility: 10 miles , 16 km
Cloud details: Partly cloudy 3600 ft
Mostly cloudy 5000 ft
Overcast 12000 ft
2019/07/16 20:15 KIKK 162015Z AUTO 04005KT 10SM -RA SCT036 BKN050 OVC120 25/23 A2989 RMK AO2 T02540233
 
KGYY - Gary Regional, Indiana, USA
Distance from station: E 38mi, 62km
Updated: 16/07/2019 14:45
Mostly cloudy
Mostly cloudy
 Wind from NNW
Wind: NNW 10 mph , 17 km/h
Temperature: 81°F , 27°C
Heat Index: 87°F , 31°C
Dew Point: 75°F , 24°C
Humidity: 84%
Barometer: 29.91 inHg , 1012.9 hPa
Clouds: Mostly cloudy
Visibility: 10 miles , 16 km
Cloud details: Partly cloudy 1200 ft
Partly cloudy 3000 ft
Mostly cloudy 4000 ft
2019/07/16 19:45 KGYY 161945Z 34009KT 10SM SCT012 SCT030 BKN040 27/24 A2991
KPWK - Palwaukee, Illinois, USA
Distance from station: NNE 40mi, 65km
Updated: 16/07/2019 14:52
Partly cloudy
Partly cloudy
 Wind from varies
Wind: varies 3 mph , 6 km/h
Temperature: 84°F , 29°C
Heat Index: 88°F , 31°C
Dew Point: 70°F , 21°C
Humidity: 62%
Barometer: 29.90 inHg , 1012.5 hPa
Clouds: Partly cloudy
Visibility: 10 miles , 16 km
Cloud details: Few Clouds 3600 ft
Partly cloudy 8000 ft
2019/07/16 19:52 KPWK 161952Z VRB03KT 10SM FEW036 SCT080 29/21 A2990 RMK AO2 SLP118 T02890211